createdAt,value
2023-12-05T00:02:08.613Z,6.33
2023-12-05T00:04:37.782Z,8.43
2023-12-05T00:07:05.367Z,10.10
2023-12-05T00:09:33.357Z,7.68
2023-12-05T00:12:00.665Z,6.35
2023-12-05T00:14:28.003Z,8.40
2023-12-05T00:16:55.258Z,8.57
2023-12-05T00:19:22.939Z,9.02
2023-12-05T00:21:50.394Z,8.52
2023-12-05T00:24:17.832Z,8.60
2023-12-05T00:26:45.317Z,10.50
2023-12-05T00:29:12.691Z,12.57
2023-12-05T00:31:40.081Z,10.27
2023-12-05T00:34:07.571Z,11.65
2023-12-05T00:36:34.977Z,9.18
2023-12-05T00:39:02.560Z,10.10
2023-12-05T00:41:29.865Z,6.65
2023-12-05T00:43:57.293Z,8.10
2023-12-05T00:46:25.115Z,11.23
2023-12-05T00:48:52.528Z,10.13
2023-12-05T00:51:19.937Z,7.27
2023-12-05T00:53:47.401Z,9.57
2023-12-05T00:56:15.887Z,10.82
2023-12-05T00:58:43.235Z,10.13
2023-12-05T01:01:10.564Z,10.25
2023-12-05T01:03:38.122Z,10.40
2023-12-05T01:06:06.221Z,8.35
2023-12-05T01:08:33.690Z,8.98
2023-12-05T01:11:01.336Z,10.23
2023-12-05T01:13:28.768Z,6.55
2023-12-05T01:15:56.173Z,8.33
2023-12-05T01:18:23.730Z,7.30
2023-12-05T01:20:51.139Z,7.13
2023-12-05T01:23:18.459Z,7.68
2023-12-05T01:25:45.775Z,9.88
2023-12-05T01:28:13.261Z,8.97
2023-12-05T01:30:41.031Z,10.98
2023-12-05T01:33:08.701Z,9.35
2023-12-05T01:35:36.043Z,11.13
2023-12-05T01:38:03.558Z,8.85
2023-12-05T01:40:30.953Z,10.47
2023-12-05T01:42:58.435Z,9.88
2023-12-05T01:45:25.855Z,11.27
2023-12-05T01:47:53.392Z,9.45
2023-12-05T01:50:23.726Z,9.20
2023-12-05T01:52:53.053Z,8.87
2023-12-05T01:55:20.502Z,10.30
2023-12-05T01:57:48.014Z,9.23
2023-12-05T02:00:18.444Z,10.50
2023-12-05T02:02:46.128Z,10.05
2023-12-05T02:05:14.905Z,7.90
2023-12-05T02:07:42.686Z,9.32
2023-12-05T02:10:11.433Z,8.52
2023-12-05T02:12:40.201Z,10.48
2023-12-05T02:15:08.527Z,8.50
2023-12-05T02:17:38.984Z,9.80
2023-12-05T02:20:27.453Z,9.20
2023-12-05T02:23:16.751Z,9.82
2023-12-05T02:25:59.320Z,7.45
2023-12-05T02:28:26.915Z,8.57
2023-12-05T02:30:54.264Z,9.97
2023-12-05T02:33:21.835Z,8.40
2023-12-05T02:35:49.178Z,10.82
2023-12-05T02:38:25.730Z,10.10
2023-12-05T02:41:19.978Z,9.48
2023-12-05T02:43:49.404Z,9.23
2023-12-05T02:46:19.722Z,9.80
2023-12-05T02:48:47.237Z,8.55
2023-12-05T02:51:14.680Z,9.85
2023-12-05T02:53:41.984Z,9.77
2023-12-05T02:56:09.546Z,10.07
2023-12-05T02:58:36.891Z,10.65
2023-12-05T03:01:04.750Z,9.30
2023-12-05T03:03:32.155Z,8.82
2023-12-05T03:05:59.648Z,10.05
2023-12-05T03:08:26.994Z,9.73
2023-12-05T03:10:59.730Z,8.57
2023-12-05T03:13:31.193Z,8.35
2023-12-05T03:15:58.501Z,10.27
2023-12-05T03:18:27.692Z,9.73
2023-12-05T03:20:55.057Z,7.70
2023-12-05T03:23:22.579Z,10.25
2023-12-05T03:25:49.974Z,8.82
2023-12-05T03:28:17.431Z,10.32
2023-12-05T03:30:44.767Z,8.88
2023-12-05T03:33:12.378Z,10.40
2023-12-05T03:35:40.048Z,10.18
2023-12-05T03:38:07.361Z,11.77
2023-12-05T03:40:34.687Z,11.57
2023-12-05T03:43:02.127Z,11.38
2023-12-05T03:45:29.401Z,12.30
2023-12-05T03:47:57.286Z,10.23
2023-12-05T03:50:25.828Z,11.50
2023-12-05T03:52:53.358Z,11.25
2023-12-05T03:55:20.673Z,11.02
2023-12-05T03:57:48.069Z,11.97
2023-12-05T04:00:16.333Z,12.02
2023-12-05T04:02:45.049Z,12.05
2023-12-05T04:05:13.263Z,12.65
2023-12-05T04:07:41.814Z,11.65
2023-12-05T04:10:10.722Z,12.77
2023-12-05T04:12:39.498Z,12.63
2023-12-05T04:15:07.708Z,11.77
2023-12-05T04:17:35.340Z,12.98
2023-12-05T04:20:02.715Z,12.25
2023-12-05T04:22:30.215Z,12.87
2023-12-05T04:24:57.574Z,12.65
2023-12-05T04:27:25.311Z,12.73
2023-12-05T04:29:52.726Z,12.60
2023-12-05T04:32:20.149Z,12.50
2023-12-05T04:34:48.256Z,12.40
2023-12-05T04:37:15.754Z,12.90
2023-12-05T04:39:43.093Z,12.48
2023-12-05T04:42:10.580Z,12.98
2023-12-05T04:44:37.981Z,14.50
2023-12-05T04:47:05.383Z,13.57
2023-12-05T04:49:34.984Z,13.32
2023-12-05T04:52:02.611Z,12.65
2023-12-05T04:54:29.992Z,12.75
2023-12-05T04:56:57.526Z,13.48
2023-12-05T04:59:24.992Z,12.73
2023-12-05T05:01:52.444Z,13.25
2023-12-05T05:04:19.899Z,15.48
2023-12-05T05:06:47.453Z,15.15
2023-12-05T05:09:14.864Z,13.40
2023-12-05T05:11:42.464Z,14.03
2023-12-05T05:14:09.817Z,12.85
2023-12-05T05:16:37.298Z,11.38
2023-12-05T05:19:04.983Z,12.23
2023-12-05T05:21:32.489Z,10.43
2023-12-05T05:24:00.044Z,11.70
2023-12-05T05:26:27.452Z,11.80
2023-12-05T05:28:54.798Z,14.10
2023-12-05T05:31:22.448Z,12.45
2023-12-05T05:33:49.945Z,12.60
2023-12-05T05:36:17.470Z,14.50
2023-12-05T05:38:45.038Z,12.35
2023-12-05T05:41:12.886Z,13.18
2023-12-05T05:43:40.258Z,12.63
2023-12-05T05:46:08.032Z,12.35
2023-12-05T05:48:35.557Z,13.03
2023-12-05T05:51:03.087Z,14.10
2023-12-05T05:53:30.419Z,11.68
2023-12-05T05:56:00.974Z,13.35
2023-12-05T05:58:28.909Z,15.32
2023-12-05T06:00:56.710Z,15.23
2023-12-05T06:03:25.340Z,14.20
2023-12-05T06:05:52.944Z,17.20
2023-12-05T06:08:20.725Z,15.57
2023-12-05T06:10:48.084Z,15.68
2023-12-05T06:13:15.565Z,16.57
2023-12-05T06:15:43.101Z,14.25
2023-12-05T06:18:12.603Z,14.15
2023-12-05T06:20:40.136Z,14.85
2023-12-05T06:23:07.995Z,16.20
2023-12-05T06:25:35.435Z,13.70
2023-12-05T06:28:03.261Z,14.65
2023-12-05T06:30:30.842Z,14.73
2023-12-05T06:32:58.444Z,17.15
2023-12-05T06:35:25.956Z,20.02
2023-12-05T06:37:53.984Z,15.17
2023-12-05T06:40:21.611Z,13.07
2023-12-05T06:42:49.179Z,14.43
2023-12-05T06:45:16.819Z,12.48
2023-12-05T06:47:45.051Z,13.40
2023-12-05T06:50:13.237Z,15.50
2023-12-05T06:52:42.270Z,13.05
2023-12-05T06:55:10.573Z,12.75
2023-12-05T06:57:38.163Z,15.43
2023-12-05T07:00:06.823Z,15.35
2023-12-05T07:02:34.505Z,13.47
2023-12-05T07:05:09.022Z,13.63
2023-12-05T07:07:45.488Z,16.83
2023-12-05T07:10:14.795Z,13.32
2023-12-05T07:12:42.607Z,12.75
2023-12-05T07:15:10.623Z,14.03
2023-12-05T07:17:41.164Z,10.73
2023-12-05T07:20:13.379Z,11.30
2023-12-05T07:22:41.380Z,10.70
2023-12-05T07:25:08.929Z,11.77
2023-12-05T07:27:37.473Z,13.43
2023-12-05T07:30:06.176Z,14.25
2023-12-05T07:32:34.119Z,12.70
2023-12-05T07:35:03.356Z,11.20
2023-12-05T07:37:31.393Z,13.55
2023-12-05T07:39:58.872Z,12.73
2023-12-05T07:42:26.793Z,13.50
2023-12-05T07:44:55.514Z,11.85
2023-12-05T07:47:25.095Z,11.75
2023-12-05T07:49:52.802Z,12.75
2023-12-05T07:52:20.699Z,12.20
2023-12-05T07:54:48.492Z,13.40
2023-12-05T07:57:23.354Z,13.52
2023-12-05T07:59:51.110Z,12.30
2023-12-05T08:02:18.573Z,14.98
2023-12-05T08:04:46.141Z,14.67
2023-12-05T08:07:13.805Z,14.23
2023-12-05T08:09:41.856Z,12.70
2023-12-05T08:12:09.585Z,13.45
2023-12-05T08:14:37.592Z,13.00
2023-12-05T08:17:06.293Z,14.80
2023-12-05T08:19:34.548Z,13.85
2023-12-05T08:22:02.279Z,12.48
2023-12-05T08:24:29.900Z,12.50
2023-12-05T08:26:57.598Z,12.50
2023-12-05T08:29:25.082Z,12.07
2023-12-05T08:31:53.524Z,14.52
2023-12-05T08:34:21.596Z,10.60
2023-12-05T08:36:49.608Z,11.15
2023-12-05T08:39:17.201Z,10.57
2023-12-05T08:41:45.560Z,13.27
2023-12-05T08:44:13.662Z,9.13
2023-12-05T08:46:41.246Z,8.65
2023-12-05T08:49:08.731Z,14.20
2023-12-05T08:51:36.720Z,12.68
2023-12-05T08:54:05.373Z,11.27
2023-12-05T08:56:33.692Z,7.07
2023-12-05T08:59:07.445Z,14.40
2023-12-05T09:01:39.740Z,10.27
2023-12-05T09:04:19.231Z,14.93
2023-12-05T09:06:56.600Z,12.73
2023-12-05T09:09:25.620Z,15.45
2023-12-05T09:11:54.575Z,15.80
2023-12-05T09:14:23.543Z,13.43
2023-12-05T09:16:57.985Z,18.00
2023-12-05T09:19:30.332Z,15.67
2023-12-05T09:22:03.963Z,13.27
2023-12-05T09:24:34.800Z,13.32
2023-12-05T09:27:04.009Z,15.07
2023-12-05T09:29:32.490Z,15.15
2023-12-05T09:32:00.200Z,13.67
2023-12-05T09:34:28.180Z,14.00
2023-12-05T09:36:55.778Z,14.18
2023-12-05T09:39:23.386Z,15.95
2023-12-05T09:41:54.703Z,17.35
2023-12-05T09:44:25.473Z,16.20
2023-12-05T09:46:53.528Z,13.55
2023-12-05T09:49:21.457Z,16.38
2023-12-05T09:51:48.984Z,15.02
2023-12-05T09:54:16.676Z,15.70
2023-12-05T09:56:45.059Z,12.63
2023-12-05T09:59:12.774Z,12.98
2023-12-05T10:01:41.047Z,14.00
2023-12-05T10:04:13.313Z,14.52
2023-12-05T10:06:41.870Z,18.00
2023-12-05T10:09:11.890Z,16.60
2023-12-05T10:11:39.754Z,16.58
2023-12-05T10:14:07.727Z,16.88
2023-12-05T10:16:35.345Z,17.20
2023-12-05T10:19:03.531Z,13.95
2023-12-05T10:21:31.252Z,16.73
2023-12-05T10:23:59.335Z,14.55
2023-12-05T10:26:27.357Z,15.07
2023-12-05T10:28:56.974Z,15.48
2023-12-05T10:31:25.288Z,17.00
2023-12-05T10:33:53.424Z,17.47
2023-12-05T10:36:22.032Z,15.70
2023-12-05T10:38:51.084Z,15.18
2023-12-05T10:41:25.487Z,14.23
2023-12-05T10:43:57.321Z,17.35
2023-12-05T10:46:26.520Z,17.87
2023-12-05T10:48:55.713Z,18.40
2023-12-05T10:51:28.714Z,17.73
2023-12-05T10:54:00.410Z,14.30
2023-12-05T10:56:29.470Z,17.40
2023-12-05T10:58:57.627Z,15.27
2023-12-05T11:01:26.709Z,15.20
2023-12-05T11:03:54.478Z,17.13
2023-12-05T11:06:22.317Z,14.55
2023-12-05T11:08:50.701Z,16.80
2023-12-05T11:11:20.044Z,15.90
2023-12-05T11:13:47.869Z,17.40
2023-12-05T11:16:27.626Z,16.80
2023-12-05T11:19:14.372Z,15.32
2023-12-05T11:22:03.443Z,15.93
2023-12-05T11:24:52.764Z,16.97
2023-12-05T11:27:40.031Z,15.52
2023-12-05T11:30:44.804Z,15.23
2023-12-05T11:33:33.972Z,15.70
2023-12-05T11:36:05.466Z,14.65
2023-12-05T11:38:33.441Z,13.03
2023-12-05T11:41:21.678Z,15.55
2023-12-05T11:44:14.486Z,16.30
2023-12-05T11:46:45.666Z,16.00
2023-12-05T11:49:14.711Z,16.88
2023-12-05T11:51:42.134Z,17.77
2023-12-05T11:54:09.665Z,19.77
2023-12-05T11:56:37.361Z,17.63
2023-12-05T11:59:21.530Z,17.45
2023-12-05T12:01:50.621Z,17.40
2023-12-05T12:04:20.643Z,20.33
2023-12-05T12:06:49.345Z,19.50
2023-12-05T12:09:20.011Z,16.98
2023-12-05T12:11:48.711Z,17.20
2023-12-05T12:14:18.118Z,17.33
2023-12-05T12:16:48.896Z,18.03
2023-12-05T12:19:17.832Z,16.98
2023-12-05T12:21:48.993Z,17.33
2023-12-05T12:24:24.193Z,16.45
2023-12-05T12:26:55.536Z,16.60
2023-12-05T12:29:23.245Z,16.60
2023-12-05T12:31:53.657Z,16.17
2023-12-05T12:34:27.232Z,17.50
2023-12-05T12:36:56.945Z,16.63
2023-12-05T12:39:27.283Z,17.67
2023-12-05T12:41:59.937Z,16.10
2023-12-05T12:44:28.761Z,17.48
2023-12-05T12:46:57.694Z,17.55
2023-12-05T12:49:38.081Z,17.80
2023-12-05T12:52:07.189Z,18.52
2023-12-05T12:54:39.339Z,17.50
2023-12-05T12:57:08.447Z,18.15
2023-12-05T12:59:39.533Z,17.98
2023-12-05T13:02:09.033Z,18.90
2023-12-05T13:04:38.102Z,20.48
2023-12-05T13:07:06.560Z,21.13
2023-12-05T13:09:34.773Z,21.80
2023-12-05T13:12:02.336Z,18.77
2023-12-05T13:14:29.720Z,17.50
2023-12-05T13:16:57.611Z,17.98
2023-12-05T13:19:29.584Z,19.23
2023-12-05T13:21:57.192Z,20.08
2023-12-05T13:24:24.602Z,19.27
2023-12-05T13:26:54.095Z,20.05
2023-12-05T13:29:21.768Z,20.73
2023-12-05T13:31:50.049Z,20.60
2023-12-05T13:34:17.778Z,22.23
2023-12-05T13:36:45.724Z,21.92
2023-12-05T13:39:15.188Z,20.75
2023-12-05T13:41:43.050Z,22.33
2023-12-05T13:44:11.785Z,21.63
2023-12-05T13:46:40.502Z,21.85
2023-12-05T13:49:08.366Z,21.77
2023-12-05T13:51:36.643Z,21.42
2023-12-05T13:54:05.702Z,22.23
2023-12-05T13:56:33.680Z,21.03
2023-12-05T13:59:01.207Z,21.65
2023-12-05T14:01:28.947Z,21.33
2023-12-05T14:03:57.677Z,19.58
2023-12-05T14:06:25.372Z,20.08
2023-12-05T14:08:53.008Z,20.70
2023-12-05T14:11:20.503Z,21.55
2023-12-05T14:13:48.103Z,22.65
2023-12-05T14:16:16.148Z,21.65
2023-12-05T14:18:43.851Z,21.98
2023-12-05T14:21:11.643Z,21.40
2023-12-05T14:23:39.301Z,22.38
2023-12-05T14:26:06.843Z,20.70
2023-12-05T14:28:34.302Z,21.83
2023-12-05T14:31:01.967Z,22.13
2023-12-05T14:33:29.728Z,22.63
2023-12-05T14:35:57.288Z,21.75
2023-12-05T14:38:24.623Z,21.55
2023-12-05T14:40:52.206Z,21.45
2023-12-05T14:43:19.913Z,23.25
2023-12-05T14:45:47.338Z,22.27
2023-12-05T14:48:15.483Z,23.10
2023-12-05T14:50:43.044Z,24.10
2023-12-05T14:53:13.028Z,24.83
2023-12-05T14:55:40.869Z,24.13
2023-12-05T14:58:08.747Z,23.00
2023-12-05T15:00:36.523Z,23.13
2023-12-05T15:03:04.408Z,23.25
2023-12-05T15:05:33.307Z,23.42
2023-12-05T15:08:00.994Z,22.77
2023-12-05T15:10:28.599Z,21.87
2023-12-05T15:12:58.800Z,23.00
2023-12-05T15:15:27.108Z,22.80
2023-12-05T15:17:55.035Z,24.13
2023-12-05T15:20:24.216Z,22.30
2023-12-05T15:22:52.533Z,21.57
2023-12-05T15:25:20.423Z,21.02
2023-12-05T15:27:48.014Z,22.40
2023-12-05T15:30:15.673Z,21.45
2023-12-05T15:32:52.885Z,22.48
2023-12-05T15:35:24.286Z,21.67
2023-12-05T15:37:51.989Z,22.48
2023-12-05T15:40:19.390Z,21.67
2023-12-05T15:42:49.545Z,22.20
2023-12-05T15:45:20.030Z,21.17
2023-12-05T15:47:47.742Z,19.60
2023-12-05T15:50:18.616Z,21.42
2023-12-05T15:52:47.180Z,19.60
2023-12-05T15:55:16.368Z,21.15
2023-12-05T15:57:44.433Z,22.33
2023-12-05T16:00:12.678Z,18.93
2023-12-05T16:02:42.287Z,21.38
2023-12-05T16:05:10.185Z,20.83
2023-12-05T16:07:38.557Z,19.42
2023-12-05T16:10:07.587Z,21.85
2023-12-05T16:12:35.651Z,20.53
2023-12-05T16:15:04.939Z,21.50
2023-12-05T16:17:33.967Z,24.05
2023-12-05T16:20:01.481Z,21.63
2023-12-05T16:22:28.962Z,22.70
2023-12-05T16:24:56.428Z,22.70
2023-12-05T16:27:24.945Z,22.50
2023-12-05T16:29:52.343Z,22.90
2023-12-05T16:32:19.939Z,22.33
2023-12-05T16:34:47.503Z,22.27
2023-12-05T16:37:14.967Z,20.47
2023-12-05T16:39:42.432Z,20.65
2023-12-05T16:42:10.321Z,19.52
2023-12-05T16:44:43.161Z,20.63
2023-12-05T16:47:11.368Z,19.67
2023-12-05T16:49:38.817Z,20.23
2023-12-05T16:52:06.723Z,20.45
2023-12-05T16:54:34.330Z,20.50
2023-12-05T16:57:02.155Z,20.83
2023-12-05T16:59:34.042Z,20.58
2023-12-05T17:02:02.917Z,21.10
2023-12-05T17:04:30.448Z,19.98
2023-12-05T17:06:58.392Z,21.67
2023-12-05T17:09:25.857Z,21.77
2023-12-05T17:11:53.304Z,20.95
2023-12-05T17:14:20.789Z,21.07
2023-12-05T17:16:48.471Z,22.15
2023-12-05T17:19:15.915Z,22.75
2023-12-05T17:21:43.629Z,22.85
2023-12-05T17:24:11.522Z,22.73
2023-12-05T17:26:39.301Z,22.03
2023-12-05T17:29:06.716Z,21.38
2023-12-05T17:31:34.250Z,21.27
2023-12-05T17:34:01.767Z,22.13
2023-12-05T17:36:29.887Z,22.40
2023-12-05T17:38:57.448Z,21.47
2023-12-05T17:41:25.122Z,22.38
2023-12-05T17:43:52.652Z,22.13
2023-12-05T17:46:20.363Z,22.20
2023-12-05T17:48:47.941Z,21.90
2023-12-05T17:51:15.418Z,22.10
2023-12-05T17:53:42.774Z,22.20
2023-12-05T17:56:10.533Z,21.77
2023-12-05T17:58:38.077Z,20.63
2023-12-05T18:01:05.958Z,22.33
2023-12-05T18:03:33.481Z,21.53
2023-12-05T18:06:00.918Z,19.67
2023-12-05T18:08:28.525Z,21.02
2023-12-05T18:10:55.884Z,21.58
2023-12-05T18:13:23.413Z,21.30
2023-12-05T18:15:50.907Z,21.70
2023-12-05T18:18:18.362Z,21.70
2023-12-05T18:20:45.820Z,20.33
2023-12-05T18:23:14.002Z,21.65
2023-12-05T18:25:41.943Z,21.20
2023-12-05T18:28:09.439Z,20.27
2023-12-05T18:30:37.383Z,20.95
2023-12-05T18:33:05.104Z,21.48
2023-12-05T18:35:32.666Z,21.15
2023-12-05T18:38:00.290Z,22.10
2023-12-05T18:40:27.734Z,21.30
2023-12-05T18:42:55.208Z,20.90
2023-12-05T18:45:22.754Z,20.80
2023-12-05T18:47:50.442Z,22.13
2023-12-05T18:50:18.856Z,21.02
2023-12-05T18:52:46.261Z,20.13
2023-12-05T18:55:13.825Z,22.05
2023-12-05T18:57:43.401Z,20.45
2023-12-05T19:00:11.731Z,22.90
2023-12-05T19:02:39.038Z,21.45
2023-12-05T19:05:06.733Z,19.50
2023-12-05T19:07:34.152Z,21.23
2023-12-05T19:10:01.728Z,21.55
2023-12-05T19:12:29.130Z,20.92
2023-12-05T19:14:56.562Z,20.25
2023-12-05T19:17:24.366Z,20.57
2023-12-05T19:19:51.832Z,20.05
2023-12-05T19:22:19.276Z,19.05
2023-12-05T19:24:47.510Z,19.38
2023-12-05T19:27:15.072Z,20.63
2023-12-05T19:29:45.559Z,20.07
2023-12-05T19:32:13.091Z,21.10
2023-12-05T19:34:43.332Z,19.50
2023-12-05T19:37:12.523Z,20.25
2023-12-05T19:39:41.023Z,19.98
2023-12-05T19:42:08.771Z,18.27
2023-12-05T19:44:36.231Z,19.58
2023-12-05T19:47:03.783Z,20.35
2023-12-05T19:49:31.173Z,20.42
2023-12-05T19:51:59.168Z,20.55
2023-12-05T19:54:27.858Z,20.50
2023-12-05T19:56:55.296Z,21.60
2023-12-05T19:59:22.717Z,20.75
2023-12-05T20:01:50.267Z,21.60
2023-12-05T20:04:17.670Z,19.73
2023-12-05T20:06:45.298Z,19.43
2023-12-05T20:09:12.578Z,20.95
2023-12-05T20:11:40.016Z,22.42
2023-12-05T20:14:07.354Z,20.10
2023-12-05T20:16:34.663Z,21.52
2023-12-05T20:19:02.173Z,20.23
2023-12-05T20:21:29.836Z,21.40
2023-12-05T20:23:58.286Z,20.80
2023-12-05T20:26:25.832Z,22.02
2023-12-05T20:28:53.133Z,21.40
2023-12-05T20:31:20.882Z,21.63
2023-12-05T20:33:48.313Z,23.67
2023-12-05T20:36:15.817Z,22.95
2023-12-05T20:38:43.169Z,22.77
2023-12-05T20:41:10.772Z,21.02
2023-12-05T20:43:40.800Z,22.37
2023-12-05T20:46:09.002Z,22.13
2023-12-05T20:48:36.492Z,22.33
2023-12-05T20:51:04.648Z,20.50
2023-12-05T20:53:32.202Z,22.05
2023-12-05T20:55:59.576Z,22.77
2023-12-05T20:58:26.968Z,21.67
2023-12-05T21:00:54.512Z,22.60
2023-12-05T21:03:21.883Z,22.30
2023-12-05T21:05:49.401Z,23.30
2023-12-05T21:08:20.384Z,22.23
2023-12-05T21:10:47.852Z,21.67
2023-12-05T21:13:15.346Z,21.48
2023-12-05T21:15:43.156Z,23.55
2023-12-05T21:18:11.312Z,22.77
2023-12-05T21:20:38.803Z,22.20
2023-12-05T21:23:06.166Z,21.30
2023-12-05T21:25:33.544Z,21.95
2023-12-05T21:28:00.979Z,22.35
2023-12-05T21:30:28.373Z,22.30
2023-12-05T21:32:55.842Z,23.53
2023-12-05T21:35:23.686Z,22.52
2023-12-05T21:37:51.289Z,23.17
2023-12-05T21:40:18.715Z,23.73
2023-12-05T21:42:46.142Z,24.17
2023-12-05T21:45:13.709Z,24.33
2023-12-05T21:47:41.066Z,25.42
2023-12-05T21:50:08.957Z,21.52
2023-12-05T21:52:36.705Z,23.90
2023-12-05T21:55:04.448Z,24.90
2023-12-05T21:57:31.856Z,22.13
2023-12-05T21:59:59.334Z,23.05
2023-12-05T22:02:26.595Z,21.80
2023-12-05T22:04:53.997Z,22.30
2023-12-05T22:07:21.514Z,22.33
2023-12-05T22:09:49.037Z,21.77
2023-12-05T22:12:16.354Z,20.85
2023-12-05T22:14:43.760Z,23.30
2023-12-05T22:17:11.057Z,22.55
2023-12-05T22:19:38.483Z,23.23
2023-12-05T22:22:05.782Z,23.43
2023-12-05T22:24:33.551Z,20.63
2023-12-05T22:27:01.000Z,22.58
2023-12-05T22:29:28.513Z,23.60
2023-12-05T22:31:56.700Z,23.38
2023-12-05T22:34:24.158Z,20.53
2023-12-05T22:36:51.592Z,23.17
2023-12-05T22:39:19.154Z,22.15
2023-12-05T22:41:46.407Z,23.45
2023-12-05T22:44:13.806Z,22.85
2023-12-05T22:46:41.088Z,22.70
2023-12-05T22:49:08.757Z,24.08
2023-12-05T22:51:36.207Z,23.17
2023-12-05T22:54:03.592Z,23.02
2023-12-05T22:56:30.871Z,21.38
2023-12-05T22:58:58.219Z,21.70
2023-12-05T23:01:25.596Z,24.08
2023-12-05T23:03:53.975Z,23.63
2023-12-05T23:06:21.376Z,23.83
2023-12-05T23:08:48.722Z,23.35
2023-12-05T23:11:16.137Z,23.13
2023-12-05T23:13:44.436Z,22.40
2023-12-05T23:16:11.796Z,21.60
2023-12-05T23:18:39.328Z,22.98
2023-12-05T23:21:07.044Z,23.58
2023-12-05T23:23:34.336Z,23.73
2023-12-05T23:26:01.718Z,22.30
2023-12-05T23:28:29.233Z,23.15
2023-12-05T23:30:56.576Z,22.83
2023-12-05T23:33:24.088Z,23.05
2023-12-05T23:35:51.739Z,20.60
2023-12-05T23:38:19.145Z,22.52
2023-12-05T23:40:46.432Z,22.60
2023-12-05T23:43:13.840Z,21.77
2023-12-05T23:45:41.170Z,21.90
2023-12-05T23:48:08.612Z,22.50
2023-12-05T23:50:35.915Z,22.50
2023-12-05T23:53:03.327Z,23.80
2023-12-05T23:55:30.745Z,22.67
2023-12-05T23:57:58.171Z,22.33
